sensor_id;sensor_type;location;lat;lon;timestamp;P1;durP1;ratioP1;P2;durP2;ratioP2
17987;SDS011;9119;50.932;5.342;2022-10-31T00:00:52;43.53;;;21.60;;
17987;SDS011;9119;50.932;5.342;2022-10-31T00:03:18;53.00;;;23.10;;
17987;SDS011;9119;50.932;5.342;2022-10-31T00:05:45;39.17;;;18.20;;
17987;SDS011;9119;50.932;5.342;2022-10-31T00:08:11;46.67;;;20.57;;
17987;SDS011;9119;50.932;5.342;2022-10-31T00:10:38;40.03;;;19.13;;
17987;SDS011;9119;50.932;5.342;2022-10-31T00:13:04;39.30;;;18.97;;
17987;SDS011;9119;50.932;5.342;2022-10-31T00:15:30;39.50;;;20.43;;
17987;SDS011;9119;50.932;5.342;2022-10-31T00:18:01;35.73;;;19.33;;
17987;SDS011;9119;50.932;5.342;2022-10-31T00:20:27;47.03;;;19.20;;
17987;SDS011;9119;50.932;5.342;2022-10-31T00:22:52;43.40;;;19.17;;
17987;SDS011;9119;50.932;5.342;2022-10-31T00:25:18;50.30;;;22.07;;
17987;SDS011;9119;50.932;5.342;2022-10-31T00:27:45;44.17;;;19.30;;
17987;SDS011;9119;50.932;5.342;2022-10-31T00:30:11;42.80;;;20.10;;
17987;SDS011;9119;50.932;5.342;2022-10-31T00:32:37;48.13;;;20.40;;
17987;SDS011;9119;50.932;5.342;2022-10-31T00:35:02;41.93;;;19.53;;
17987;SDS011;9119;50.932;5.342;2022-10-31T00:37:28;46.37;;;19.27;;
17987;SDS011;9119;50.932;5.342;2022-10-31T00:39:54;44.70;;;20.50;;
17987;SDS011;9119;50.932;5.342;2022-10-31T00:42:19;43.83;;;20.07;;
17987;SDS011;9119;50.932;5.342;2022-10-31T00:44:45;45.90;;;20.13;;
17987;SDS011;9119;50.932;5.342;2022-10-31T00:47:10;48.60;;;19.27;;
17987;SDS011;9119;50.932;5.342;2022-10-31T00:49:36;41.57;;;19.97;;
17987;SDS011;9119;50.932;5.342;2022-10-31T00:52:02;44.10;;;20.40;;
17987;SDS011;9119;50.932;5.342;2022-10-31T00:54:27;43.90;;;21.20;;
17987;SDS011;9119;50.932;5.342;2022-10-31T00:56:53;52.60;;;20.80;;
17987;SDS011;9119;50.932;5.342;2022-10-31T00:59:18;44.53;;;21.00;;
17987;SDS011;9119;50.932;5.342;2022-10-31T01:01:44;44.90;;;20.47;;
17987;SDS011;9119;50.932;5.342;2022-10-31T01:04:10;48.07;;;20.60;;
17987;SDS011;9119;50.932;5.342;2022-10-31T01:06:35;37.20;;;20.47;;
17987;SDS011;9119;50.932;5.342;2022-10-31T01:09:01;51.07;;;20.70;;
17987;SDS011;9119;50.932;5.342;2022-10-31T01:11:26;44.50;;;19.70;;
17987;SDS011;9119;50.932;5.342;2022-10-31T01:13:52;44.97;;;19.67;;
17987;SDS011;9119;50.932;5.342;2022-10-31T01:16:19;46.37;;;20.40;;
17987;SDS011;9119;50.932;5.342;2022-10-31T01:18:47;40.40;;;19.73;;
17987;SDS011;9119;50.932;5.342;2022-10-31T01:21:16;47.10;;;20.63;;
17987;SDS011;9119;50.932;5.342;2022-10-31T01:23:44;46.53;;;21.27;;
17987;SDS011;9119;50.932;5.342;2022-10-31T01:28:47;42.17;;;20.33;;
17987;SDS011;9119;50.932;5.342;2022-10-31T01:31:17;42.90;;;19.40;;
17987;SDS011;9119;50.932;5.342;2022-10-31T01:33:45;43.23;;;19.67;;
17987;SDS011;9119;50.932;5.342;2022-10-31T01:39:07;47.30;;;18.43;;
17987;SDS011;9119;50.932;5.342;2022-10-31T01:41:36;40.57;;;18.17;;
17987;SDS011;9119;50.932;5.342;2022-10-31T01:49:22;44.20;;;19.83;;
17987;SDS011;9119;50.932;5.342;2022-10-31T01:52:04;37.43;;;19.30;;
17987;SDS011;9119;50.932;5.342;2022-10-31T01:54:31;45.73;;;19.77;;
17987;SDS011;9119;50.932;5.342;2022-10-31T01:57:00;39.60;;;18.60;;
17987;SDS011;9119;50.932;5.342;2022-10-31T01:59:29;44.33;;;19.43;;
17987;SDS011;9119;50.932;5.342;2022-10-31T02:01:59;40.07;;;20.10;;
17987;SDS011;9119;50.932;5.342;2022-10-31T02:04:25;42.30;;;18.63;;
17987;SDS011;9119;50.932;5.342;2022-10-31T02:06:59;47.53;;;19.27;;
17987;SDS011;9119;50.932;5.342;2022-10-31T02:09:28;40.80;;;19.23;;
17987;SDS011;9119;50.932;5.342;2022-10-31T02:11:57;41.00;;;19.20;;
17987;SDS011;9119;50.932;5.342;2022-10-31T02:14:25;44.47;;;20.47;;
17987;SDS011;9119;50.932;5.342;2022-10-31T02:16:54;41.33;;;18.50;;
17987;SDS011;9119;50.932;5.342;2022-10-31T02:22:15;45.43;;;18.47;;
17987;SDS011;9119;50.932;5.342;2022-10-31T02:33:51;40.90;;;19.43;;
17987;SDS011;9119;50.932;5.342;2022-10-31T02:36:56;41.60;;;17.73;;
17987;SDS011;9119;50.932;5.342;2022-10-31T02:39:29;35.77;;;18.60;;
17987;SDS011;9119;50.932;5.342;2022-10-31T02:47:49;33.23;;;17.03;;
17987;SDS011;9119;50.932;5.342;2022-10-31T02:50:20;38.90;;;18.27;;
17987;SDS011;9119;50.932;5.342;2022-10-31T02:52:50;38.60;;;18.30;;
17987;SDS011;9119;50.932;5.342;2022-10-31T02:58:02;35.47;;;17.50;;
17987;SDS011;9119;50.932;5.342;2022-10-31T03:00:37;38.10;;;18.93;;
17987;SDS011;9119;50.932;5.342;2022-10-31T03:03:36;49.20;;;19.60;;
17987;SDS011;9119;50.932;5.342;2022-10-31T03:11:17;48.37;;;19.07;;
17987;SDS011;9119;50.932;5.342;2022-10-31T03:16:39;41.30;;;18.73;;
17987;SDS011;9119;50.932;5.342;2022-10-31T03:21:52;49.60;;;19.07;;
17987;SDS011;9119;50.932;5.342;2022-10-31T03:24:39;35.47;;;17.17;;
17987;SDS011;9119;50.932;5.342;2022-10-31T03:27:07;37.20;;;17.57;;
17987;SDS011;9119;50.932;5.342;2022-10-31T03:29:36;41.47;;;18.63;;
17987;SDS011;9119;50.932;5.342;2022-10-31T03:32:07;43.67;;;17.73;;
17987;SDS011;9119;50.932;5.342;2022-10-31T03:34:38;40.20;;;18.67;;
17987;SDS011;9119;50.932;5.342;2022-10-31T03:37:07;34.73;;;18.13;;
17987;SDS011;9119;50.932;5.342;2022-10-31T03:39:36;41.60;;;17.83;;
17987;SDS011;9119;50.932;5.342;2022-10-31T03:42:11;43.53;;;18.73;;
17987;SDS011;9119;50.932;5.342;2022-10-31T03:44:45;43.70;;;19.77;;
17987;SDS011;9119;50.932;5.342;2022-10-31T03:47:13;41.23;;;18.93;;
17987;SDS011;9119;50.932;5.342;2022-10-31T03:49:39;38.97;;;19.17;;
17987;SDS011;9119;50.932;5.342;2022-10-31T03:52:12;32.57;;;17.77;;
17987;SDS011;9119;50.932;5.342;2022-10-31T03:54:51;34.50;;;17.37;;
17987;SDS011;9119;50.932;5.342;2022-10-31T04:00:08;36.93;;;18.23;;
17987;SDS011;9119;50.932;5.342;2022-10-31T04:02:37;37.83;;;18.30;;
17987;SDS011;9119;50.932;5.342;2022-10-31T04:05:06;40.33;;;18.07;;
17987;SDS011;9119;50.932;5.342;2022-10-31T04:07:36;39.80;;;18.43;;
17987;SDS011;9119;50.932;5.342;2022-10-31T04:10:06;33.67;;;18.10;;
17987;SDS011;9119;50.932;5.342;2022-10-31T04:12:36;37.57;;;18.33;;
17987;SDS011;9119;50.932;5.342;2022-10-31T04:15:04;44.17;;;17.80;;
17987;SDS011;9119;50.932;5.342;2022-10-31T04:17:33;37.33;;;18.17;;
17987;SDS011;9119;50.932;5.342;2022-10-31T04:20:03;40.47;;;18.03;;
17987;SDS011;9119;50.932;5.342;2022-10-31T04:22:29;45.47;;;20.03;;
17987;SDS011;9119;50.932;5.342;2022-10-31T04:24:55;42.53;;;18.27;;
17987;SDS011;9119;50.932;5.342;2022-10-31T04:27:21;35.10;;;18.30;;
17987;SDS011;9119;50.932;5.342;2022-10-31T04:29:46;37.60;;;18.47;;
17987;SDS011;9119;50.932;5.342;2022-10-31T04:32:12;40.43;;;17.97;;
17987;SDS011;9119;50.932;5.342;2022-10-31T04:34:38;43.13;;;18.43;;
17987;SDS011;9119;50.932;5.342;2022-10-31T04:37:03;38.83;;;19.00;;
17987;SDS011;9119;50.932;5.342;2022-10-31T04:39:29;36.17;;;18.10;;
17987;SDS011;9119;50.932;5.342;2022-10-31T04:41:55;36.63;;;18.77;;
17987;SDS011;9119;50.932;5.342;2022-10-31T04:44:20;41.67;;;19.37;;
17987;SDS011;9119;50.932;5.342;2022-10-31T04:46:46;40.10;;;19.47;;
17987;SDS011;9119;50.932;5.342;2022-10-31T04:49:12;44.40;;;19.33;;
17987;SDS011;9119;50.932;5.342;2022-10-31T04:51:38;41.67;;;18.67;;
17987;SDS011;9119;50.932;5.342;2022-10-31T04:54:04;40.77;;;18.13;;
17987;SDS011;9119;50.932;5.342;2022-10-31T04:56:29;34.53;;;17.90;;
17987;SDS011;9119;50.932;5.342;2022-10-31T04:58:55;37.07;;;18.33;;
17987;SDS011;9119;50.932;5.342;2022-10-31T05:01:21;40.17;;;18.07;;
17987;SDS011;9119;50.932;5.342;2022-10-31T05:03:46;43.03;;;18.20;;
17987;SDS011;9119;50.932;5.342;2022-10-31T05:06:12;42.17;;;18.27;;
17987;SDS011;9119;50.932;5.342;2022-10-31T05:08:37;33.83;;;17.10;;
17987;SDS011;9119;50.932;5.342;2022-10-31T05:11:03;41.20;;;17.90;;
17987;SDS011;9119;50.932;5.342;2022-10-31T05:13:29;44.83;;;19.13;;
17987;SDS011;9119;50.932;5.342;2022-10-31T05:15:55;38.23;;;18.07;;
17987;SDS011;9119;50.932;5.342;2022-10-31T05:18:21;37.47;;;19.77;;
17987;SDS011;9119;50.932;5.342;2022-10-31T05:20:47;38.43;;;19.03;;
17987;SDS011;9119;50.932;5.342;2022-10-31T05:23:12;44.07;;;20.23;;
17987;SDS011;9119;50.932;5.342;2022-10-31T05:25:39;47.53;;;19.67;;
17987;SDS011;9119;50.932;5.342;2022-10-31T05:28:05;41.00;;;18.40;;
17987;SDS011;9119;50.932;5.342;2022-10-31T05:30:31;38.53;;;18.80;;
17987;SDS011;9119;50.932;5.342;2022-10-31T05:32:58;46.20;;;19.63;;
17987;SDS011;9119;50.932;5.342;2022-10-31T05:35:25;42.53;;;19.10;;
17987;SDS011;9119;50.932;5.342;2022-10-31T05:37:52;35.77;;;18.00;;
17987;SDS011;9119;50.932;5.342;2022-10-31T05:40:18;39.70;;;19.87;;
17987;SDS011;9119;50.932;5.342;2022-10-31T05:42:45;39.27;;;18.60;;
17987;SDS011;9119;50.932;5.342;2022-10-31T05:45:12;43.10;;;19.53;;
17987;SDS011;9119;50.932;5.342;2022-10-31T05:47:39;42.27;;;19.73;;
17987;SDS011;9119;50.932;5.342;2022-10-31T05:50:05;40.20;;;18.03;;
17987;SDS011;9119;50.932;5.342;2022-10-31T05:52:32;39.43;;;18.87;;
17987;SDS011;9119;50.932;5.342;2022-10-31T05:54:58;51.70;;;19.40;;
17987;SDS011;9119;50.932;5.342;2022-10-31T05:57:23;35.80;;;17.50;;
17987;SDS011;9119;50.932;5.342;2022-10-31T05:59:49;37.03;;;17.67;;
17987;SDS011;9119;50.932;5.342;2022-10-31T06:02:18;34.77;;;16.70;;
17987;SDS011;9119;50.932;5.342;2022-10-31T06:04:44;37.00;;;16.93;;
17987;SDS011;9119;50.932;5.342;2022-10-31T06:07:09;37.13;;;16.90;;
17987;SDS011;9119;50.932;5.342;2022-10-31T06:09:35;34.80;;;16.37;;
17987;SDS011;9119;50.932;5.342;2022-10-31T06:12:00;35.30;;;17.47;;
17987;SDS011;9119;50.932;5.342;2022-10-31T06:14:26;35.53;;;16.47;;
17987;SDS011;9119;50.932;5.342;2022-10-31T06:16:52;35.70;;;15.70;;
17987;SDS011;9119;50.932;5.342;2022-10-31T06:19:19;32.77;;;16.77;;
17987;SDS011;9119;50.932;5.342;2022-10-31T06:21:45;39.67;;;17.07;;
17987;SDS011;9119;50.932;5.342;2022-10-31T06:24:10;32.27;;;15.57;;
17987;SDS011;9119;50.932;5.342;2022-10-31T06:26:36;35.87;;;17.17;;
17987;SDS011;9119;50.932;5.342;2022-10-31T06:29:01;34.73;;;17.27;;
17987;SDS011;9119;50.932;5.342;2022-10-31T06:31:27;31.33;;;15.73;;
17987;SDS011;9119;50.932;5.342;2022-10-31T06:33:53;31.10;;;15.93;;
17987;SDS011;9119;50.932;5.342;2022-10-31T06:36:18;34.17;;;15.77;;
17987;SDS011;9119;50.932;5.342;2022-10-31T06:38:44;32.43;;;15.70;;
17987;SDS011;9119;50.932;5.342;2022-10-31T06:41:09;35.70;;;15.90;;
17987;SDS011;9119;50.932;5.342;2022-10-31T06:43:35;35.60;;;16.20;;
17987;SDS011;9119;50.932;5.342;2022-10-31T06:46:04;36.87;;;15.50;;
17987;SDS011;9119;50.932;5.342;2022-10-31T06:48:30;35.47;;;15.97;;
17987;SDS011;9119;50.932;5.342;2022-10-31T06:50:57;39.47;;;15.20;;
17987;SDS011;9119;50.932;5.342;2022-10-31T06:53:24;25.50;;;13.77;;
17987;SDS011;9119;50.932;5.342;2022-10-31T06:55:50;30.00;;;15.47;;
17987;SDS011;9119;50.932;5.342;2022-10-31T06:58:16;29.13;;;16.00;;
17987;SDS011;9119;50.932;5.342;2022-10-31T07:00:42;33.37;;;14.77;;
17987;SDS011;9119;50.932;5.342;2022-10-31T07:03:11;34.23;;;15.77;;
17987;SDS011;9119;50.932;5.342;2022-10-31T07:05:37;32.40;;;15.07;;
17987;SDS011;9119;50.932;5.342;2022-10-31T07:08:05;31.73;;;15.03;;
17987;SDS011;9119;50.932;5.342;2022-10-31T07:10:33;33.27;;;15.07;;
17987;SDS011;9119;50.932;5.342;2022-10-31T07:13:01;35.37;;;15.93;;
17987;SDS011;9119;50.932;5.342;2022-10-31T07:15:29;35.93;;;15.07;;
17987;SDS011;9119;50.932;5.342;2022-10-31T07:18:01;35.67;;;15.47;;
17987;SDS011;9119;50.932;5.342;2022-10-31T07:20:33;31.73;;;15.27;;
17987;SDS011;9119;50.932;5.342;2022-10-31T07:22:59;32.93;;;15.83;;
17987;SDS011;9119;50.932;5.342;2022-10-31T07:25:26;40.57;;;15.23;;
17987;SDS011;9119;50.932;5.342;2022-10-31T07:27:52;30.93;;;15.63;;
17987;SDS011;9119;50.932;5.342;2022-10-31T07:30:20;35.53;;;15.17;;
17987;SDS011;9119;50.932;5.342;2022-10-31T07:32:47;33.93;;;14.50;;
17987;SDS011;9119;50.932;5.342;2022-10-31T07:35:15;28.93;;;14.90;;
17987;SDS011;9119;50.932;5.342;2022-10-31T07:37:41;33.37;;;15.23;;
17987;SDS011;9119;50.932;5.342;2022-10-31T07:40:07;27.63;;;14.93;;
17987;SDS011;9119;50.932;5.342;2022-10-31T07:42:37;31.53;;;15.17;;
17987;SDS011;9119;50.932;5.342;2022-10-31T07:45:04;39.77;;;15.23;;
17987;SDS011;9119;50.932;5.342;2022-10-31T07:47:41;33.57;;;14.97;;
17987;SDS011;9119;50.932;5.342;2022-10-31T07:50:08;33.60;;;16.13;;
17987;SDS011;9119;50.932;5.342;2022-10-31T07:52:35;43.83;;;15.57;;
17987;SDS011;9119;50.932;5.342;2022-10-31T07:55:01;35.03;;;15.40;;
17987;SDS011;9119;50.932;5.342;2022-10-31T07:57:27;36.23;;;15.37;;
17987;SDS011;9119;50.932;5.342;2022-10-31T07:59:53;46.67;;;15.97;;
17987;SDS011;9119;50.932;5.342;2022-10-31T08:02:19;35.67;;;16.37;;
17987;SDS011;9119;50.932;5.342;2022-10-31T08:04:44;38.87;;;15.87;;
17987;SDS011;9119;50.932;5.342;2022-10-31T08:07:10;35.27;;;15.77;;
17987;SDS011;9119;50.932;5.342;2022-10-31T08:09:35;39.17;;;15.77;;
17987;SDS011;9119;50.932;5.342;2022-10-31T08:12:01;37.20;;;16.00;;
17987;SDS011;9119;50.932;5.342;2022-10-31T08:14:27;37.00;;;15.57;;
17987;SDS011;9119;50.932;5.342;2022-10-31T08:16:53;34.40;;;15.63;;
17987;SDS011;9119;50.932;5.342;2022-10-31T08:19:19;34.40;;;15.70;;
17987;SDS011;9119;50.932;5.342;2022-10-31T08:21:45;42.80;;;16.47;;
17987;SDS011;9119;50.932;5.342;2022-10-31T08:24:11;51.70;;;16.23;;
17987;SDS011;9119;50.932;5.342;2022-10-31T08:26:36;32.17;;;14.67;;
17987;SDS011;9119;50.932;5.342;2022-10-31T08:29:02;36.37;;;15.27;;
17987;SDS011;9119;50.932;5.342;2022-10-31T08:31:29;38.13;;;15.53;;
17987;SDS011;9119;50.932;5.342;2022-10-31T08:33:55;34.83;;;14.80;;
17987;SDS011;9119;50.932;5.342;2022-10-31T08:36:20;40.23;;;19.67;;
17987;SDS011;9119;50.932;5.342;2022-10-31T08:38:47;32.87;;;16.10;;
17987;SDS011;9119;50.932;5.342;2022-10-31T08:41:13;40.47;;;16.47;;
17987;SDS011;9119;50.932;5.342;2022-10-31T08:43:39;36.60;;;15.60;;
17987;SDS011;9119;50.932;5.342;2022-10-31T08:46:05;41.97;;;16.60;;
17987;SDS011;9119;50.932;5.342;2022-10-31T08:48:31;44.97;;;16.77;;
17987;SDS011;9119;50.932;5.342;2022-10-31T08:50:57;41.23;;;18.43;;
17987;SDS011;9119;50.932;5.342;2022-10-31T08:53:24;48.53;;;17.90;;
17987;SDS011;9119;50.932;5.342;2022-10-31T08:55:50;39.77;;;17.57;;
17987;SDS011;9119;50.932;5.342;2022-10-31T08:58:19;44.20;;;18.57;;
17987;SDS011;9119;50.932;5.342;2022-10-31T09:00:45;52.97;;;19.10;;
17987;SDS011;9119;50.932;5.342;2022-10-31T09:03:17;42.57;;;17.30;;
17987;SDS011;9119;50.932;5.342;2022-10-31T09:05:47;46.83;;;18.00;;
17987;SDS011;9119;50.932;5.342;2022-10-31T09:08:13;44.10;;;17.60;;
17987;SDS011;9119;50.932;5.342;2022-10-31T09:10:39;41.57;;;18.77;;
17987;SDS011;9119;50.932;5.342;2022-10-31T09:13:10;53.10;;;19.07;;
17987;SDS011;9119;50.932;5.342;2022-10-31T09:15:41;41.17;;;18.20;;
17987;SDS011;9119;50.932;5.342;2022-10-31T09:18:09;41.70;;;19.70;;
17987;SDS011;9119;50.932;5.342;2022-10-31T09:20:37;48.70;;;19.70;;
17987;SDS011;9119;50.932;5.342;2022-10-31T09:23:04;47.00;;;19.57;;
17987;SDS011;9119;50.932;5.342;2022-10-31T09:25:41;41.50;;;18.17;;
17987;SDS011;9119;50.932;5.342;2022-10-31T09:28:08;46.93;;;18.30;;
17987;SDS011;9119;50.932;5.342;2022-10-31T09:30:37;43.03;;;19.00;;
17987;SDS011;9119;50.932;5.342;2022-10-31T09:33:04;52.43;;;18.87;;
17987;SDS011;9119;50.932;5.342;2022-10-31T09:35:39;45.67;;;19.90;;
17987;SDS011;9119;50.932;5.342;2022-10-31T09:38:06;46.90;;;18.80;;
17987;SDS011;9119;50.932;5.342;2022-10-31T09:46:21;47.57;;;20.20;;
17987;SDS011;9119;50.932;5.342;2022-10-31T09:51:30;42.60;;;19.93;;
17987;SDS011;9119;50.932;5.342;2022-10-31T09:56:57;40.70;;;18.53;;
17987;SDS011;9119;50.932;5.342;2022-10-31T09:59:34;46.83;;;20.80;;
17987;SDS011;9119;50.932;5.342;2022-10-31T10:02:03;42.43;;;18.37;;
17987;SDS011;9119;50.932;5.342;2022-10-31T10:04:41;46.33;;;19.70;;
17987;SDS011;9119;50.932;5.342;2022-10-31T10:07:27;41.77;;;18.63;;
17987;SDS011;9119;50.932;5.342;2022-10-31T10:09:55;44.30;;;18.00;;
17987;SDS011;9119;50.932;5.342;2022-10-31T10:12:32;47.50;;;18.40;;
17987;SDS011;9119;50.932;5.342;2022-10-31T10:20:24;45.43;;;20.00;;
17987;SDS011;9119;50.932;5.342;2022-10-31T10:25:42;45.10;;;19.57;;
17987;SDS011;9119;50.932;5.342;2022-10-31T10:38:38;36.90;;;17.33;;
17987;SDS011;9119;50.932;5.342;2022-10-31T10:41:22;36.83;;;17.77;;
17987;SDS011;9119;50.932;5.342;2022-10-31T10:43:50;48.33;;;17.50;;
17987;SDS011;9119;50.932;5.342;2022-10-31T10:46:18;45.83;;;17.30;;
17987;SDS011;9119;50.932;5.342;2022-10-31T10:49:34;36.20;;;16.93;;
17987;SDS011;9119;50.932;5.342;2022-10-31T10:57:41;39.83;;;18.23;;
17987;SDS011;9119;50.932;5.342;2022-10-31T11:00:27;42.23;;;15.53;;
17987;SDS011;9119;50.932;5.342;2022-10-31T11:03:03;39.07;;;15.83;;
17987;SDS011;9119;50.932;5.342;2022-10-31T11:08:01;38.63;;;16.67;;
17987;SDS011;9119;50.932;5.342;2022-10-31T11:10:27;30.93;;;15.70;;
17987;SDS011;9119;50.932;5.342;2022-10-31T11:12:58;34.40;;;15.20;;
17987;SDS011;9119;50.932;5.342;2022-10-31T11:15:25;32.67;;;15.27;;
17987;SDS011;9119;50.932;5.342;2022-10-31T11:17:54;38.50;;;15.63;;
17987;SDS011;9119;50.932;5.342;2022-10-31T11:20:25;41.50;;;15.33;;
17987;SDS011;9119;50.932;5.342;2022-10-31T11:23:04;34.17;;;15.23;;
17987;SDS011;9119;50.932;5.342;2022-10-31T11:26:03;33.67;;;14.93;;
17987;SDS011;9119;50.932;5.342;2022-10-31T11:28:29;36.90;;;15.20;;
17987;SDS011;9119;50.932;5.342;2022-10-31T11:31:01;38.77;;;15.17;;
17987;SDS011;9119;50.932;5.342;2022-10-31T11:33:46;35.30;;;16.77;;
17987;SDS011;9119;50.932;5.342;2022-10-31T11:36:21;35.03;;;14.57;;
17987;SDS011;9119;50.932;5.342;2022-10-31T11:38:50;33.97;;;13.63;;
17987;SDS011;9119;50.932;5.342;2022-10-31T11:41:18;31.47;;;12.77;;
17987;SDS011;9119;50.932;5.342;2022-10-31T11:46:44;30.37;;;12.73;;
17987;SDS011;9119;50.932;5.342;2022-10-31T11:52:02;28.13;;;11.73;;
17987;SDS011;9119;50.932;5.342;2022-10-31T11:54:32;32.63;;;14.77;;
17987;SDS011;9119;50.932;5.342;2022-10-31T11:59:52;32.77;;;13.40;;
17987;SDS011;9119;50.932;5.342;2022-10-31T12:02:21;31.50;;;12.03;;
17987;SDS011;9119;50.932;5.342;2022-10-31T12:05:22;30.13;;;12.23;;
17987;SDS011;9119;50.932;5.342;2022-10-31T12:07:45;28.73;;;12.53;;
17987;SDS011;9119;50.932;5.342;2022-10-31T12:10:11;34.30;;;12.13;;
17987;SDS011;9119;50.932;5.342;2022-10-31T12:15:18;32.63;;;12.30;;
17987;SDS011;9119;50.932;5.342;2022-10-31T12:18:17;30.30;;;12.30;;
17987;SDS011;9119;50.932;5.342;2022-10-31T12:37:11;27.23;;;12.57;;
17987;SDS011;9119;50.932;5.342;2022-10-31T12:56:50;29.53;;;9.80;;
17987;SDS011;9119;50.932;5.342;2022-10-31T12:59:42;34.47;;;10.43;;
17987;SDS011;9119;50.932;5.342;2022-10-31T13:07:24;34.10;;;11.20;;
17987;SDS011;9119;50.932;5.342;2022-10-31T13:09:53;24.03;;;10.00;;
17987;SDS011;9119;50.932;5.342;2022-10-31T13:12:25;42.37;;;11.03;;
17987;SDS011;9119;50.932;5.342;2022-10-31T13:14:57;23.50;;;11.10;;
17987;SDS011;9119;50.932;5.342;2022-10-31T13:17:28;27.63;;;11.53;;
17987;SDS011;9119;50.932;5.342;2022-10-31T13:20:03;28.53;;;10.83;;
17987;SDS011;9119;50.932;5.342;2022-10-31T13:22:40;22.10;;;11.57;;
17987;SDS011;9119;50.932;5.342;2022-10-31T13:25:13;29.93;;;10.77;;
17987;SDS011;9119;50.932;5.342;2022-10-31T13:27:44;24.57;;;11.37;;
17987;SDS011;9119;50.932;5.342;2022-10-31T13:30:36;31.00;;;12.03;;
17987;SDS011;9119;50.932;5.342;2022-10-31T13:33:09;29.83;;;11.70;;
17987;SDS011;9119;50.932;5.342;2022-10-31T13:35:46;28.73;;;11.70;;
17987;SDS011;9119;50.932;5.342;2022-10-31T13:38:25;28.77;;;12.13;;
17987;SDS011;9119;50.932;5.342;2022-10-31T13:40:58;26.40;;;11.07;;
17987;SDS011;9119;50.932;5.342;2022-10-31T13:43:55;32.77;;;11.07;;
17987;SDS011;9119;50.932;5.342;2022-10-31T13:46:42;31.13;;;12.50;;
17987;SDS011;9119;50.932;5.342;2022-10-31T13:49:23;32.60;;;12.30;;
17987;SDS011;9119;50.932;5.342;2022-10-31T13:54:37;30.80;;;12.00;;
17987;SDS011;9119;50.932;5.342;2022-10-31T13:57:22;35.50;;;12.83;;
17987;SDS011;9119;50.932;5.342;2022-10-31T13:59:57;39.33;;;12.43;;
17987;SDS011;9119;50.932;5.342;2022-10-31T14:02:26;30.70;;;12.07;;
17987;SDS011;9119;50.932;5.342;2022-10-31T14:04:59;31.13;;;12.47;;
17987;SDS011;9119;50.932;5.342;2022-10-31T14:07:28;28.63;;;12.30;;
17987;SDS011;9119;50.932;5.342;2022-10-31T14:10:02;24.47;;;11.50;;
17987;SDS011;9119;50.932;5.342;2022-10-31T14:15:16;38.77;;;13.30;;
17987;SDS011;9119;50.932;5.342;2022-10-31T14:17:58;33.07;;;12.83;;
17987;SDS011;9119;50.932;5.342;2022-10-31T14:20:26;27.77;;;11.83;;
17987;SDS011;9119;50.932;5.342;2022-10-31T14:23:24;33.63;;;12.33;;
17987;SDS011;9119;50.932;5.342;2022-10-31T14:29:38;33.40;;;12.43;;
17987;SDS011;9119;50.932;5.342;2022-10-31T14:31:39;38.83;;;13.23;;
17987;SDS011;9119;50.932;5.342;2022-10-31T14:37:11;39.00;;;12.87;;
17987;SDS011;9119;50.932;5.342;2022-10-31T14:40:07;29.30;;;13.47;;
17987;SDS011;9119;50.932;5.342;2022-10-31T14:48:07;38.60;;;13.70;;
17987;SDS011;9119;50.932;5.342;2022-10-31T14:53:19;32.67;;;11.53;;
17987;SDS011;9119;50.932;5.342;2022-10-31T14:55:49;33.87;;;13.33;;
17987;SDS011;9119;50.932;5.342;2022-10-31T14:58:18;25.10;;;11.87;;
17987;SDS011;9119;50.932;5.342;2022-10-31T15:00:53;27.50;;;11.53;;
17987;SDS011;9119;50.932;5.342;2022-10-31T15:03:28;28.73;;;11.10;;
17987;SDS011;9119;50.932;5.342;2022-10-31T15:06:13;28.93;;;11.10;;
17987;SDS011;9119;50.932;5.342;2022-10-31T15:08:45;35.33;;;11.90;;
17987;SDS011;9119;50.932;5.342;2022-10-31T15:11:21;36.90;;;11.90;;
17987;SDS011;9119;50.932;5.342;2022-10-31T15:13:50;36.53;;;11.00;;
17987;SDS011;9119;50.932;5.342;2022-10-31T15:16:21;23.93;;;10.60;;
17987;SDS011;9119;50.932;5.342;2022-10-31T15:18:53;30.30;;;10.70;;
17987;SDS011;9119;50.932;5.342;2022-10-31T15:21:30;27.10;;;10.97;;
17987;SDS011;9119;50.932;5.342;2022-10-31T15:23:59;31.77;;;11.20;;
17987;SDS011;9119;50.932;5.342;2022-10-31T15:26:27;27.20;;;10.97;;
17987;SDS011;9119;50.932;5.342;2022-10-31T15:29:02;31.07;;;11.27;;
17987;SDS011;9119;50.932;5.342;2022-10-31T15:31:30;20.93;;;10.63;;
17987;SDS011;9119;50.932;5.342;2022-10-31T15:34:11;30.57;;;11.00;;
17987;SDS011;9119;50.932;5.342;2022-10-31T15:36:41;27.17;;;10.77;;
17987;SDS011;9119;50.932;5.342;2022-10-31T15:39:10;36.50;;;10.70;;
17987;SDS011;9119;50.932;5.342;2022-10-31T15:44:27;32.73;;;8.37;;
17987;SDS011;9119;50.932;5.342;2022-10-31T15:52:07;19.43;;;5.70;;
17987;SDS011;9119;50.932;5.342;2022-10-31T15:54:51;17.17;;;5.37;;
17987;SDS011;9119;50.932;5.342;2022-10-31T15:57:20;15.67;;;5.97;;
17987;SDS011;9119;50.932;5.342;2022-10-31T15:59:47;16.90;;;6.20;;
17987;SDS011;9119;50.932;5.342;2022-10-31T16:02:17;14.20;;;5.20;;
17987;SDS011;9119;50.932;5.342;2022-10-31T16:07:21;21.53;;;9.57;;
17987;SDS011;9119;50.932;5.342;2022-10-31T16:12:36;19.90;;;5.80;;
17987;SDS011;9119;50.932;5.342;2022-10-31T16:15:13;19.57;;;5.63;;
17987;SDS011;9119;50.932;5.342;2022-10-31T16:17:40;25.90;;;7.93;;
17987;SDS011;9119;50.932;5.342;2022-10-31T16:20:16;24.10;;;12.33;;
17987;SDS011;9119;50.932;5.342;2022-10-31T16:22:48;18.13;;;8.73;;
17987;SDS011;9119;50.932;5.342;2022-10-31T16:25:25;15.27;;;5.30;;
17987;SDS011;9119;50.932;5.342;2022-10-31T16:27:54;12.33;;;4.60;;
17987;SDS011;9119;50.932;5.342;2022-10-31T16:33:01;14.07;;;5.17;;
17987;SDS011;9119;50.932;5.342;2022-10-31T16:38:00;17.10;;;4.87;;
17987;SDS011;9119;50.932;5.342;2022-10-31T16:40:26;12.80;;;4.27;;
17987;SDS011;9119;50.932;5.342;2022-10-31T16:42:52;11.90;;;4.27;;
17987;SDS011;9119;50.932;5.342;2022-10-31T16:45:21;19.33;;;4.67;;
17987;SDS011;9119;50.932;5.342;2022-10-31T16:47:51;11.23;;;4.07;;
17987;SDS011;9119;50.932;5.342;2022-10-31T16:50:21;11.37;;;4.20;;
17987;SDS011;9119;50.932;5.342;2022-10-31T16:52:49;9.97;;;4.20;;
17987;SDS011;9119;50.932;5.342;2022-10-31T16:55:15;13.20;;;4.23;;
17987;SDS011;9119;50.932;5.342;2022-10-31T16:57:44;16.23;;;5.00;;
17987;SDS011;9119;50.932;5.342;2022-10-31T17:00:24;11.67;;;4.17;;
17987;SDS011;9119;50.932;5.342;2022-10-31T17:02:52;16.87;;;4.20;;
17987;SDS011;9119;50.932;5.342;2022-10-31T17:05:21;14.07;;;4.10;;
17987;SDS011;9119;50.932;5.342;2022-10-31T17:07:53;33.23;;;13.60;;
17987;SDS011;9119;50.932;5.342;2022-10-31T17:10:23;16.93;;;7.67;;
17987;SDS011;9119;50.932;5.342;2022-10-31T17:12:49;11.97;;;5.77;;
17987;SDS011;9119;50.932;5.342;2022-10-31T17:15:16;19.07;;;4.90;;
17987;SDS011;9119;50.932;5.342;2022-10-31T17:17:50;12.93;;;4.87;;
17987;SDS011;9119;50.932;5.342;2022-10-31T17:20:34;13.73;;;4.27;;
17987;SDS011;9119;50.932;5.342;2022-10-31T17:22:59;11.27;;;4.33;;
17987;SDS011;9119;50.932;5.342;2022-10-31T17:25:26;10.43;;;4.37;;
17987;SDS011;9119;50.932;5.342;2022-10-31T17:27:53;15.90;;;4.37;;
17987;SDS011;9119;50.932;5.342;2022-10-31T17:30:19;13.30;;;4.10;;
17987;SDS011;9119;50.932;5.342;2022-10-31T17:32:46;32.57;;;16.40;;
17987;SDS011;9119;50.932;5.342;2022-10-31T17:35:13;24.77;;;11.97;;
17987;SDS011;9119;50.932;5.342;2022-10-31T17:37:41;17.70;;;8.10;;
17987;SDS011;9119;50.932;5.342;2022-10-31T17:40:08;13.93;;;5.73;;
17987;SDS011;9119;50.932;5.342;2022-10-31T17:42:35;19.37;;;5.57;;